sensor_id;sensor_type;location;lat;lon;timestamp;pressure;altitude;pressure_sealevel;temperature
69435;BMP180;56625;54.322;18.582;2023-03-03T00:01:38;101211.40;;;-0.50
69435;BMP180;56625;54.322;18.582;2023-03-03T00:04:04;101201.80;;;-0.50
69435;BMP180;56625;54.322;18.582;2023-03-03T00:06:31;101193.00;;;-0.50
69435;BMP180;56625;54.322;18.582;2023-03-03T00:08:57;101187.00;;;-0.50
69435;BMP180;56625;54.322;18.582;2023-03-03T00:11:24;101187.80;;;-0.50
69435;BMP180;56625;54.322;18.582;2023-03-03T00:13:54;101182.00;;;-0.50
69435;BMP180;56625;54.322;18.582;2023-03-03T00:16:28;101176.60;;;-0.50
69435;BMP180;56625;54.322;18.582;2023-03-03T00:18:56;101179.00;;;-0.50
69435;BMP180;56625;54.322;18.582;2023-03-03T00:27:01;101160.40;;;-0.50
69435;BMP180;56625;54.322;18.582;2023-03-03T00:29:44;101159.60;;;-0.50
69435;BMP180;56625;54.322;18.582;2023-03-03T00:33:11;101154.60;;;-0.50
69435;BMP180;56625;54.322;18.582;2023-03-03T00:35:22;101152.80;;;-0.44
69435;BMP180;56625;54.322;18.582;2023-03-03T00:38:01;101144.20;;;-0.40
69435;BMP180;56625;54.322;18.582;2023-03-03T00:40:38;101130.20;;;-0.40
69435;BMP180;56625;54.322;18.582;2023-03-03T00:43:23;101126.00;;;-0.40
69435;BMP180;56625;54.322;18.582;2023-03-03T00:45:57;101128.00;;;-0.42
69435;BMP180;56625;54.322;18.582;2023-03-03T00:48:27;101133.40;;;-0.44
69435;BMP180;56625;54.322;18.582;2023-03-03T00:50:59;101136.00;;;-0.50
69435;BMP180;56625;54.322;18.582;2023-03-03T00:53:28;101127.60;;;-0.50
69435;BMP180;56625;54.322;18.582;2023-03-03T00:55:56;101137.40;;;-0.50
69435;BMP180;56625;54.322;18.582;2023-03-03T00:58:24;101138.20;;;-0.50
69435;BMP180;56625;54.322;18.582;2023-03-03T01:00:53;101131.40;;;-0.50
69435;BMP180;56625;54.322;18.582;2023-03-03T01:03:25;101141.80;;;-0.50
69435;BMP180;56625;54.322;18.582;2023-03-03T01:05:53;101132.40;;;-0.50
69435;BMP180;56625;54.322;18.582;2023-03-03T01:08:20;101128.60;;;-0.50
69435;BMP180;56625;54.322;18.582;2023-03-03T01:10:53;101138.40;;;-0.50
69435;BMP180;56625;54.322;18.582;2023-03-03T01:13:24;101131.60;;;-0.50
69435;BMP180;56625;54.322;18.582;2023-03-03T01:15:51;101118.20;;;-0.50
69435;BMP180;56625;54.322;18.582;2023-03-03T01:18:18;101117.40;;;-0.50
69435;BMP180;56625;54.322;18.582;2023-03-03T01:20:45;101113.60;;;-0.50
69435;BMP180;56625;54.322;18.582;2023-03-03T01:23:12;101106.80;;;-0.50
69435;BMP180;56625;54.322;18.582;2023-03-03T01:25:39;101113.00;;;-0.50
69435;BMP180;56625;54.322;18.582;2023-03-03T01:28:06;101115.80;;;-0.46
69435;BMP180;56625;54.322;18.582;2023-03-03T01:30:33;101113.60;;;-0.46
69435;BMP180;56625;54.322;18.582;2023-03-03T01:33:00;101101.40;;;-0.42
69435;BMP180;56625;54.322;18.582;2023-03-03T01:35:27;101098.80;;;-0.44
69435;BMP180;56625;54.322;18.582;2023-03-03T01:37:56;101096.80;;;-0.40
69435;BMP180;56625;54.322;18.582;2023-03-03T01:40:27;101110.40;;;-0.40
69435;BMP180;56625;54.322;18.582;2023-03-03T01:42:55;101106.00;;;-0.40
69435;BMP180;56625;54.322;18.582;2023-03-03T01:45:25;101093.60;;;-0.40
69435;BMP180;56625;54.322;18.582;2023-03-03T01:48:30;101092.60;;;-0.40
69435;BMP180;56625;54.322;18.582;2023-03-03T01:54:10;101100.20;;;-0.40
69435;BMP180;56625;54.322;18.582;2023-03-03T01:56:41;101096.80;;;-0.40
69435;BMP180;56625;54.322;18.582;2023-03-03T01:59:16;101094.80;;;-0.40
69435;BMP180;56625;54.322;18.582;2023-03-03T02:01:46;101088.60;;;-0.40
69435;BMP180;56625;54.322;18.582;2023-03-03T02:04:13;101082.40;;;-0.40
69435;BMP180;56625;54.322;18.582;2023-03-03T02:06:46;101069.40;;;-0.40
69435;BMP180;56625;54.322;18.582;2023-03-03T02:09:26;101074.60;;;-0.30
69435;BMP180;56625;54.322;18.582;2023-03-03T02:12:00;101072.80;;;-0.30
69435;BMP180;56625;54.322;18.582;2023-03-03T02:14:28;101070.40;;;-0.30
69435;BMP180;56625;54.322;18.582;2023-03-03T02:16:55;101077.40;;;-0.20
69435;BMP180;56625;54.322;18.582;2023-03-03T02:22:01;101064.80;;;-0.20
69435;BMP180;56625;54.322;18.582;2023-03-03T02:24:34;101069.80;;;-0.10
69435;BMP180;56625;54.322;18.582;2023-03-03T02:27:04;101055.20;;;-0.10
69435;BMP180;56625;54.322;18.582;2023-03-03T02:29:33;101055.40;;;-0.10
69435;BMP180;56625;54.322;18.582;2023-03-03T02:31:59;101052.80;;;-0.10
69435;BMP180;56625;54.322;18.582;2023-03-03T02:34:26;101058.40;;;-0.02
69435;BMP180;56625;54.322;18.582;2023-03-03T02:36:53;101056.00;;;0.00
69435;BMP180;56625;54.322;18.582;2023-03-03T02:42:19;101052.80;;;0.02
69435;BMP180;56625;54.322;18.582;2023-03-03T02:44:47;101048.00;;;0.06
69435;BMP180;56625;54.322;18.582;2023-03-03T02:47:14;101060.60;;;0.10
69435;BMP180;56625;54.322;18.582;2023-03-03T02:49:40;101063.00;;;0.10
69435;BMP180;56625;54.322;18.582;2023-03-03T02:52:10;101058.40;;;0.10
69435;BMP180;56625;54.322;18.582;2023-03-03T02:54:37;101073.00;;;0.10
69435;BMP180;56625;54.322;18.582;2023-03-03T02:57:05;101070.00;;;0.10
69435;BMP180;56625;54.322;18.582;2023-03-03T02:59:32;101056.40;;;0.10
69435;BMP180;56625;54.322;18.582;2023-03-03T03:01:59;101062.80;;;0.16
69435;BMP180;56625;54.322;18.582;2023-03-03T03:04:26;101059.20;;;0.20
69435;BMP180;56625;54.322;18.582;2023-03-03T03:06:54;101056.20;;;0.20
69435;BMP180;56625;54.322;18.582;2023-03-03T03:09:23;101057.40;;;0.20
69435;BMP180;56625;54.322;18.582;2023-03-03T03:11:51;101056.80;;;0.28
69435;BMP180;56625;54.322;18.582;2023-03-03T03:14:18;101059.60;;;0.30
69435;BMP180;56625;54.322;18.582;2023-03-03T03:16:45;101056.00;;;0.30
69435;BMP180;56625;54.322;18.582;2023-03-03T03:19:11;101055.20;;;0.30
69435;BMP180;56625;54.322;18.582;2023-03-03T03:21:38;101052.60;;;0.38
69435;BMP180;56625;54.322;18.582;2023-03-03T03:24:05;101056.00;;;0.40
69435;BMP180;56625;54.322;18.582;2023-03-03T03:26:32;101059.80;;;0.40
69435;BMP180;56625;54.322;18.582;2023-03-03T03:28:58;101058.60;;;0.46
69435;BMP180;56625;54.322;18.582;2023-03-03T03:31:25;101067.60;;;0.50
69435;BMP180;56625;54.322;18.582;2023-03-03T03:33:51;101067.60;;;0.50
69435;BMP180;56625;54.322;18.582;2023-03-03T03:36:18;101066.20;;;0.58
69435;BMP180;56625;54.322;18.582;2023-03-03T03:38:45;101069.20;;;0.60
69435;BMP180;56625;54.322;18.582;2023-03-03T03:41:12;101058.40;;;0.60
69435;BMP180;56625;54.322;18.582;2023-03-03T03:43:39;101062.80;;;0.60
69435;BMP180;56625;54.322;18.582;2023-03-03T03:46:05;101057.80;;;0.70
69435;BMP180;56625;54.322;18.582;2023-03-03T03:48:32;101054.40;;;0.70
69435;BMP180;56625;54.322;18.582;2023-03-03T03:51:00;101057.40;;;0.70
69435;BMP180;56625;54.322;18.582;2023-03-03T03:53:27;101060.20;;;0.70
69435;BMP180;56625;54.322;18.582;2023-03-03T03:55:53;101057.20;;;0.70
69435;BMP180;56625;54.322;18.582;2023-03-03T03:58:20;101049.20;;;0.74
69435;BMP180;56625;54.322;18.582;2023-03-03T04:00:47;101053.40;;;0.80
69435;BMP180;56625;54.322;18.582;2023-03-03T04:03:14;101053.00;;;0.80
69435;BMP180;56625;54.322;18.582;2023-03-03T04:05:41;101057.60;;;0.80
69435;BMP180;56625;54.322;18.582;2023-03-03T04:08:09;101058.00;;;0.90
69435;BMP180;56625;54.322;18.582;2023-03-03T04:10:37;101054.40;;;0.90
69435;BMP180;56625;54.322;18.582;2023-03-03T04:13:03;101050.00;;;0.90
69435;BMP180;56625;54.322;18.582;2023-03-03T04:15:30;101043.60;;;0.90
69435;BMP180;56625;54.322;18.582;2023-03-03T04:17:56;101037.60;;;1.00
69435;BMP180;56625;54.322;18.582;2023-03-03T04:20:23;101046.00;;;1.00
69435;BMP180;56625;54.322;18.582;2023-03-03T04:22:49;101050.80;;;1.00
69435;BMP180;56625;54.322;18.582;2023-03-03T04:25:17;101038.40;;;1.04
69435;BMP180;56625;54.322;18.582;2023-03-03T04:27:44;101030.00;;;1.10
69435;BMP180;56625;54.322;18.582;2023-03-03T04:30:13;101039.80;;;1.10
69435;BMP180;56625;54.322;18.582;2023-03-03T04:32:41;101048.60;;;1.16
69435;BMP180;56625;54.322;18.582;2023-03-03T04:35:09;101046.40;;;1.20
69435;BMP180;56625;54.322;18.582;2023-03-03T04:37:36;101034.60;;;1.20
69435;BMP180;56625;54.322;18.582;2023-03-03T04:40:05;101019.80;;;1.22
69435;BMP180;56625;54.322;18.582;2023-03-03T04:42:32;101014.20;;;1.30
69435;BMP180;56625;54.322;18.582;2023-03-03T04:44:59;101008.40;;;1.30
69435;BMP180;56625;54.322;18.582;2023-03-03T04:47:32;100993.60;;;1.30
69435;BMP180;56625;54.322;18.582;2023-03-03T04:49:59;100986.40;;;1.40
69435;BMP180;56625;54.322;18.582;2023-03-03T04:52:27;100982.80;;;1.40
69435;BMP180;56625;54.322;18.582;2023-03-03T04:54:54;100990.20;;;1.40
69435;BMP180;56625;54.322;18.582;2023-03-03T04:57:21;100990.20;;;1.42
69435;BMP180;56625;54.322;18.582;2023-03-03T04:59:47;100992.00;;;1.44
69435;BMP180;56625;54.322;18.582;2023-03-03T05:02:14;100989.00;;;1.50
69435;BMP180;56625;54.322;18.582;2023-03-03T05:04:40;100984.60;;;1.50
69435;BMP180;56625;54.322;18.582;2023-03-03T05:07:07;100974.20;;;1.50
69435;BMP180;56625;54.322;18.582;2023-03-03T05:09:34;100975.80;;;1.54
69435;BMP180;56625;54.322;18.582;2023-03-03T05:12:00;100974.00;;;1.60
69435;BMP180;56625;54.322;18.582;2023-03-03T05:14:27;100976.00;;;1.60
69435;BMP180;56625;54.322;18.582;2023-03-03T05:16:53;100984.20;;;1.60
69435;BMP180;56625;54.322;18.582;2023-03-03T05:19:20;100991.60;;;1.60
69435;BMP180;56625;54.322;18.582;2023-03-03T05:21:46;100984.60;;;1.70
69435;BMP180;56625;54.322;18.582;2023-03-03T05:24:13;100984.40;;;1.70
69435;BMP180;56625;54.322;18.582;2023-03-03T05:26:41;100978.20;;;1.70
69435;BMP180;56625;54.322;18.582;2023-03-03T05:29:08;100983.40;;;1.70
69435;BMP180;56625;54.322;18.582;2023-03-03T05:31:35;100988.00;;;1.70
69435;BMP180;56625;54.322;18.582;2023-03-03T05:34:02;100994.80;;;1.76
69435;BMP180;56625;54.322;18.582;2023-03-03T05:36:29;100989.40;;;1.74
69435;BMP180;56625;54.322;18.582;2023-03-03T05:38:55;100983.20;;;1.78
69435;BMP180;56625;54.322;18.582;2023-03-03T05:41:22;100982.00;;;1.80
69435;BMP180;56625;54.322;18.582;2023-03-03T05:43:49;100987.20;;;1.80
69435;BMP180;56625;54.322;18.582;2023-03-03T05:46:15;100990.40;;;1.80
69435;BMP180;56625;54.322;18.582;2023-03-03T05:48:43;100991.80;;;1.80
69435;BMP180;56625;54.322;18.582;2023-03-03T05:51:10;100992.40;;;1.80
69435;BMP180;56625;54.322;18.582;2023-03-03T05:53:37;100995.20;;;1.80
69435;BMP180;56625;54.322;18.582;2023-03-03T05:56:04;100996.00;;;1.90
69435;BMP180;56625;54.322;18.582;2023-03-03T05:58:30;100997.40;;;1.90
69435;BMP180;56625;54.322;18.582;2023-03-03T06:00:57;101002.00;;;1.92
69435;BMP180;56625;54.322;18.582;2023-03-03T06:03:23;101001.20;;;2.00
69435;BMP180;56625;54.322;18.582;2023-03-03T06:05:50;100994.20;;;2.06
69435;BMP180;56625;54.322;18.582;2023-03-03T06:08:16;100995.20;;;2.10
69435;BMP180;56625;54.322;18.582;2023-03-03T06:10:43;101000.40;;;2.10
69435;BMP180;56625;54.322;18.582;2023-03-03T06:13:10;101008.40;;;2.12
69435;BMP180;56625;54.322;18.582;2023-03-03T06:15:36;101004.20;;;2.20
69435;BMP180;56625;54.322;18.582;2023-03-03T06:18:03;101002.60;;;2.20
69435;BMP180;56625;54.322;18.582;2023-03-03T06:20:30;101008.00;;;2.20
69435;BMP180;56625;54.322;18.582;2023-03-03T06:22:57;101007.40;;;2.20
69435;BMP180;56625;54.322;18.582;2023-03-03T06:25:23;101008.80;;;2.26
69435;BMP180;56625;54.322;18.582;2023-03-03T06:27:51;101004.40;;;2.30
69435;BMP180;56625;54.322;18.582;2023-03-03T06:30:17;101010.00;;;2.30
69435;BMP180;56625;54.322;18.582;2023-03-03T06:32:44;101010.00;;;2.32
69435;BMP180;56625;54.322;18.582;2023-03-03T06:35:11;101005.80;;;2.40
69435;BMP180;56625;54.322;18.582;2023-03-03T06:37:38;101008.60;;;2.42
69435;BMP180;56625;54.322;18.582;2023-03-03T06:40:06;101012.20;;;2.50
69435;BMP180;56625;54.322;18.582;2023-03-03T06:42:32;101008.00;;;2.50
69435;BMP180;56625;54.322;18.582;2023-03-03T06:44:59;101004.40;;;2.50
69435;BMP180;56625;54.322;18.582;2023-03-03T06:47:25;101010.00;;;2.60
69435;BMP180;56625;54.322;18.582;2023-03-03T06:49:52;101006.40;;;2.60
69435;BMP180;56625;54.322;18.582;2023-03-03T06:52:25;101001.00;;;2.68
69435;BMP180;56625;54.322;18.582;2023-03-03T06:54:55;100998.80;;;2.70
69435;BMP180;56625;54.322;18.582;2023-03-03T06:57:30;101007.60;;;2.70
69435;BMP180;56625;54.322;18.582;2023-03-03T07:00:26;100996.00;;;2.80
69435;BMP180;56625;54.322;18.582;2023-03-03T07:03:01;101004.80;;;2.90
69435;BMP180;56625;54.322;18.582;2023-03-03T07:05:33;101005.00;;;3.00
69435;BMP180;56625;54.322;18.582;2023-03-03T07:08:00;101012.20;;;3.10
69435;BMP180;56625;54.322;18.582;2023-03-03T07:10:29;101011.40;;;3.20
69435;BMP180;56625;54.322;18.582;2023-03-03T07:13:13;101010.00;;;3.20
69435;BMP180;56625;54.322;18.582;2023-03-03T07:15:41;101014.40;;;3.30
69435;BMP180;56625;54.322;18.582;2023-03-03T07:21:17;101015.80;;;3.40
69435;BMP180;56625;54.322;18.582;2023-03-03T07:23:51;101025.00;;;3.48
69435;BMP180;56625;54.322;18.582;2023-03-03T07:26:30;101017.80;;;3.42
69435;BMP180;56625;54.322;18.582;2023-03-03T07:29:24;101020.40;;;3.40
69435;BMP180;56625;54.322;18.582;2023-03-03T07:31:56;101019.00;;;3.40
69435;BMP180;56625;54.322;18.582;2023-03-03T07:34:35;101020.60;;;3.40
69435;BMP180;56625;54.322;18.582;2023-03-03T07:37:15;101020.80;;;3.40
69435;BMP180;56625;54.322;18.582;2023-03-03T07:39:45;101019.40;;;3.50
69435;BMP180;56625;54.322;18.582;2023-03-03T07:44:45;101020.00;;;3.60
69435;BMP180;56625;54.322;18.582;2023-03-03T07:47:21;101018.20;;;3.70
69435;BMP180;56625;54.322;18.582;2023-03-03T07:49:50;101019.40;;;3.78
69435;BMP180;56625;54.322;18.582;2023-03-03T07:54:53;101004.40;;;3.90
69435;BMP180;56625;54.322;18.582;2023-03-03T07:57:33;101008.40;;;3.92
69435;BMP180;56625;54.322;18.582;2023-03-03T08:02:51;101008.80;;;4.00
69435;BMP180;56625;54.322;18.582;2023-03-03T08:05:46;101011.80;;;4.10
69435;BMP180;56625;54.322;18.582;2023-03-03T08:08:29;101005.00;;;4.08
69435;BMP180;56625;54.322;18.582;2023-03-03T08:10:59;101006.40;;;4.10
69435;BMP180;56625;54.322;18.582;2023-03-03T08:18:48;100994.40;;;4.20
69435;BMP180;56625;54.322;18.582;2023-03-03T08:21:18;100998.60;;;4.30
69435;BMP180;56625;54.322;18.582;2023-03-03T08:23:45;100990.40;;;4.30
69435;BMP180;56625;54.322;18.582;2023-03-03T08:26:11;100988.00;;;4.30
69435;BMP180;56625;54.322;18.582;2023-03-03T08:28:39;100985.60;;;4.40
69435;BMP180;56625;54.322;18.582;2023-03-03T08:31:06;100987.80;;;4.40
69435;BMP180;56625;54.322;18.582;2023-03-03T08:33:51;100991.60;;;4.50
69435;BMP180;56625;54.322;18.582;2023-03-03T08:36:18;100990.80;;;4.60
69435;BMP180;56625;54.322;18.582;2023-03-03T08:38:44;100989.60;;;4.60
69435;BMP180;56625;54.322;18.582;2023-03-03T08:41:11;100995.80;;;4.60
69435;BMP180;56625;54.322;18.582;2023-03-03T08:43:38;100995.40;;;4.60
69435;BMP180;56625;54.322;18.582;2023-03-03T08:46:06;100993.00;;;4.62
69435;BMP180;56625;54.322;18.582;2023-03-03T08:48:33;100995.00;;;4.78
69435;BMP180;56625;54.322;18.582;2023-03-03T08:50:59;100993.80;;;4.80
69435;BMP180;56625;54.322;18.582;2023-03-03T08:53:27;100990.60;;;5.00
69435;BMP180;56625;54.322;18.582;2023-03-03T08:55:54;100994.40;;;4.92
69435;BMP180;56625;54.322;18.582;2023-03-03T08:58:21;100994.80;;;4.90
69435;BMP180;56625;54.322;18.582;2023-03-03T09:01:00;100998.80;;;4.90
69435;BMP180;56625;54.322;18.582;2023-03-03T09:03:27;101004.00;;;4.80
69435;BMP180;56625;54.322;18.582;2023-03-03T09:05:53;101007.40;;;4.80
69435;BMP180;56625;54.322;18.582;2023-03-03T09:08:20;101006.60;;;4.80
69435;BMP180;56625;54.322;18.582;2023-03-03T09:10:46;101009.40;;;4.80
69435;BMP180;56625;54.322;18.582;2023-03-03T09:13:16;101005.20;;;4.80
69435;BMP180;56625;54.322;18.582;2023-03-03T09:15:45;101005.00;;;4.70
69435;BMP180;56625;54.322;18.582;2023-03-03T09:18:34;100998.20;;;4.80
69435;BMP180;56625;54.322;18.582;2023-03-03T09:21:23;100998.00;;;4.80
69435;BMP180;56625;54.322;18.582;2023-03-03T09:23:57;100992.80;;;4.90
69435;BMP180;56625;54.322;18.582;2023-03-03T09:26:55;100989.20;;;4.94
69435;BMP180;56625;54.322;18.582;2023-03-03T09:29:30;100991.60;;;4.90
69435;BMP180;56625;54.322;18.582;2023-03-03T09:32:21;100998.60;;;4.80
69435;BMP180;56625;54.322;18.582;2023-03-03T09:34:50;100993.20;;;4.70
69435;BMP180;56625;54.322;18.582;2023-03-03T09:37:35;100997.60;;;4.62
69435;BMP180;56625;54.322;18.582;2023-03-03T09:40:46;100994.00;;;4.60
69435;BMP180;56625;54.322;18.582;2023-03-03T10:04:22;100985.40;;;5.20
69435;BMP180;56625;54.322;18.582;2023-03-03T10:10:20;100979.60;;;5.28
69435;BMP180;56625;54.322;18.582;2023-03-03T10:16:21;100969.40;;;5.50
69435;BMP180;56625;54.322;18.582;2023-03-03T10:19:33;100965.80;;;5.50
69435;BMP180;56625;54.322;18.582;2023-03-03T10:25:41;100979.20;;;5.66
69435;BMP180;56625;54.322;18.582;2023-03-03T10:29:07;100970.60;;;5.60
69435;BMP180;56625;54.322;18.582;2023-03-03T10:32:23;100975.60;;;5.60
69435;BMP180;56625;54.322;18.582;2023-03-03T10:35:23;100971.20;;;5.70
69435;BMP180;56625;54.322;18.582;2023-03-03T10:40:57;100969.00;;;5.80
69435;BMP180;56625;54.322;18.582;2023-03-03T10:43:54;100965.00;;;5.80
69435;BMP180;56625;54.322;18.582;2023-03-03T10:49:30;100959.20;;;6.08
69435;BMP180;56625;54.322;18.582;2023-03-03T10:52:36;100961.20;;;6.22
69435;BMP180;56625;54.322;18.582;2023-03-03T10:55:39;100963.20;;;6.50
69435;BMP180;56625;54.322;18.582;2023-03-03T10:58:31;100958.60;;;6.50
69435;BMP180;56625;54.322;18.582;2023-03-03T11:01:21;100956.60;;;6.68
69435;BMP180;56625;54.322;18.582;2023-03-03T11:12:46;100965.20;;;6.60
69435;BMP180;56625;54.322;18.582;2023-03-03T11:27:38;100947.80;;;6.70
69435;BMP180;56625;54.322;18.582;2023-03-03T11:36:16;100939.00;;;6.80
69435;BMP180;56625;54.322;18.582;2023-03-03T11:38:52;100933.00;;;6.80
69435;BMP180;56625;54.322;18.582;2023-03-03T11:41:28;100939.80;;;6.82
69435;BMP180;56625;54.322;18.582;2023-03-03T11:44:32;100926.00;;;6.80
69435;BMP180;56625;54.322;18.582;2023-03-03T11:50:19;100919.20;;;7.00
69435;BMP180;56625;54.322;18.582;2023-03-03T11:55:51;100905.40;;;7.10
69435;BMP180;56625;54.322;18.582;2023-03-03T11:58:44;100900.80;;;7.10
69435;BMP180;56625;54.322;18.582;2023-03-03T12:04:40;100892.00;;;7.34
69435;BMP180;56625;54.322;18.582;2023-03-03T12:25:07;100860.60;;;7.94
69435;BMP180;56625;54.322;18.582;2023-03-03T12:28:10;100858.40;;;8.16
69435;BMP180;56625;54.322;18.582;2023-03-03T12:31:13;100837.80;;;8.20
69435;BMP180;56625;54.322;18.582;2023-03-03T12:34:16;100840.40;;;8.20
69435;BMP180;56625;54.322;18.582;2023-03-03T12:37:15;100831.00;;;8.20
69435;BMP180;56625;54.322;18.582;2023-03-03T12:40:13;100834.40;;;8.16
69435;BMP180;56625;54.322;18.582;2023-03-03T12:48:40;100831.80;;;8.20
69435;BMP180;56625;54.322;18.582;2023-03-03T12:55:01;100826.60;;;8.20
69435;BMP180;56625;54.322;18.582;2023-03-03T12:58:06;100827.60;;;8.06
69435;BMP180;56625;54.322;18.582;2023-03-03T13:00:51;100824.60;;;8.10
69435;BMP180;56625;54.322;18.582;2023-03-03T13:06:27;100812.00;;;8.30
69435;BMP180;56625;54.322;18.582;2023-03-03T13:09:44;100803.40;;;8.36
69435;BMP180;56625;54.322;18.582;2023-03-03T13:15:25;100790.80;;;8.40
69435;BMP180;56625;54.322;18.582;2023-03-03T13:18:29;100791.80;;;8.40
69435;BMP180;56625;54.322;18.582;2023-03-03T13:21:16;100789.20;;;8.44
69435;BMP180;56625;54.322;18.582;2023-03-03T13:24:52;100790.20;;;8.40
69435;BMP180;56625;54.322;18.582;2023-03-03T13:27:26;100786.60;;;8.30
69435;BMP180;56625;54.322;18.582;2023-03-03T13:30:32;100786.00;;;8.20
69435;BMP180;56625;54.322;18.582;2023-03-03T13:33:20;100783.20;;;8.20
69435;BMP180;56625;54.322;18.582;2023-03-03T13:36:02;100774.00;;;8.20
69435;BMP180;56625;54.322;18.582;2023-03-03T13:38:37;100776.00;;;8.20
69435;BMP180;56625;54.322;18.582;2023-03-03T13:46:56;100785.60;;;8.00
69435;BMP180;56625;54.322;18.582;2023-03-03T13:52:38;100782.60;;;7.90
69435;BMP180;56625;54.322;18.582;2023-03-03T13:55:39;100781.80;;;7.90
69435;BMP180;56625;54.322;18.582;2023-03-03T13:58:29;100784.00;;;7.90
69435;BMP180;56625;54.322;18.582;2023-03-03T14:01:21;100778.00;;;7.92
69435;BMP180;56625;54.322;18.582;2023-03-03T14:04:19;100781.40;;;8.10
69435;BMP180;56625;54.322;18.582;2023-03-03T14:06:51;100770.80;;;8.20
69435;BMP180;56625;54.322;18.582;2023-03-03T14:12:32;100769.40;;;8.40
69435;BMP180;56625;54.322;18.582;2023-03-03T14:15:21;100763.00;;;8.40
69435;BMP180;56625;54.322;18.582;2023-03-03T14:18:17;100758.00;;;8.20
69435;BMP180;56625;54.322;18.582;2023-03-03T14:20:51;100748.20;;;8.00
69435;BMP180;56625;54.322;18.582;2023-03-03T14:23:27;100752.00;;;8.00
69435;BMP180;56625;54.322;18.582;2023-03-03T14:26:09;100756.00;;;7.90
69435;BMP180;56625;54.322;18.582;2023-03-03T14:28:42;100747.00;;;7.90
69435;BMP180;56625;54.322;18.582;2023-03-03T14:31:28;100743.00;;;7.90
69435;BMP180;56625;54.322;18.582;2023-03-03T14:36:51;100750.80;;;7.70
69435;BMP180;56625;54.322;18.582;2023-03-03T14:39:37;100747.40;;;7.56
69435;BMP180;56625;54.322;18.582;2023-03-03T14:42:30;100744.20;;;7.40
69435;BMP180;56625;54.322;18.582;2023-03-03T14:45:00;100740.60;;;7.30
69435;BMP180;56625;54.322;18.582;2023-03-03T14:47:30;100740.60;;;7.20
69435;BMP180;56625;54.322;18.582;2023-03-03T14:49:57;100740.20;;;7.12
69435;BMP180;56625;54.322;18.582;2023-03-03T14:52:32;100737.00;;;7.10
69435;BMP180;56625;54.322;18.582;2023-03-03T14:55:26;100732.40;;;7.10
69435;BMP180;56625;54.322;18.582;2023-03-03T14:57:48;100730.40;;;7.00
69435;BMP180;56625;54.322;18.582;2023-03-03T15:03:20;100727.80;;;6.80
69435;BMP180;56625;54.322;18.582;2023-03-03T15:05:55;100726.80;;;6.74
69435;BMP180;56625;54.322;18.582;2023-03-03T15:08:35;100725.60;;;6.70
69435;BMP180;56625;54.322;18.582;2023-03-03T15:11:26;100720.20;;;6.70
69435;BMP180;56625;54.322;18.582;2023-03-03T15:14:11;100720.20;;;6.60
69435;BMP180;56625;54.322;18.582;2023-03-03T15:16:39;100716.40;;;6.60
69435;BMP180;56625;54.322;18.582;2023-03-03T15:19:22;100713.20;;;6.50
69435;BMP180;56625;54.322;18.582;2023-03-03T15:25:35;100703.80;;;6.40
69435;BMP180;56625;54.322;18.582;2023-03-03T15:31:38;100699.80;;;6.32
69435;BMP180;56625;54.322;18.582;2023-03-03T15:34:37;100696.40;;;6.30
69435;BMP180;56625;54.322;18.582;2023-03-03T15:37:30;100689.60;;;6.20
69435;BMP180;56625;54.322;18.582;2023-03-03T15:40:29;100687.20;;;6.10
69435;BMP180;56625;54.322;18.582;2023-03-03T15:43:31;100680.80;;;6.10
69435;BMP180;56625;54.322;18.582;2023-03-03T15:52:43;100683.20;;;5.88
69435;BMP180;56625;54.322;18.582;2023-03-03T16:01:26;100676.60;;;5.70
69435;BMP180;56625;54.322;18.582;2023-03-03T16:04:00;100678.80;;;5.60
69435;BMP180;56625;54.322;18.582;2023-03-03T16:10:07;100672.20;;;5.50
69435;BMP180;56625;54.322;18.582;2023-03-03T16:16:22;100666.40;;;5.30
69435;BMP180;56625;54.322;18.582;2023-03-03T16:25:39;100648.00;;;5.12
69435;BMP180;56625;54.322;18.582;2023-03-03T16:31:13;100646.60;;;5.10
69435;BMP180;56625;54.322;18.582;2023-03-03T16:42:28;100626.20;;;4.90
69435;BMP180;56625;54.322;18.582;2023-03-03T16:48:25;100615.00;;;4.80
69435;BMP180;56625;54.322;18.582;2023-03-03T16:51:25;100603.00;;;4.80
69435;BMP180;56625;54.322;18.582;2023-03-03T16:54:34;100606.60;;;4.70
69435;BMP180;56625;54.322;18.582;2023-03-03T16:59:51;100605.20;;;4.60
69435;BMP180;56625;54.322;18.582;2023-03-03T17:13:43;100601.40;;;4.44
69435;BMP180;56625;54.322;18.582;2023-03-03T17:16:56;100599.20;;;4.40
69435;BMP180;56625;54.322;18.582;2023-03-03T17:45:47;100582.60;;;3.94
69435;BMP180;56625;54.322;18.582;2023-03-03T17:48:45;100584.80;;;3.90
69435;BMP180;56625;54.322;18.582;2023-03-03T17:51:39;100580.80;;;3.90
69435;BMP180;56625;54.322;18.582;2023-03-03T18:09:32;100575.00;;;3.80
69435;BMP180;56625;54.322;18.582;2023-03-03T18:12:25;100580.60;;;3.70
69435;BMP180;56625;54.322;18.582;2023-03-03T18:18:21;100571.60;;;3.70
69435;BMP180;56625;54.322;18.582;2023-03-03T18:23:45;100559.80;;;3.70
69435;BMP180;56625;54.322;18.582;2023-03-03T18:29:19;100546.40;;;3.64
69435;BMP180;56625;54.322;18.582;2023-03-03T18:31:49;100552.60;;;3.62
69435;BMP180;56625;54.322;18.582;2023-03-03T18:39:44;100534.60;;;3.60
69435;BMP180;56625;54.322;18.582;2023-03-03T18:44:42;100532.20;;;3.50
69435;BMP180;56625;54.322;18.582;2023-03-03T18:47:10;100534.60;;;3.50
69435;BMP180;56625;54.322;18.582;2023-03-03T18:50:15;100527.60;;;3.50
69435;BMP180;56625;54.322;18.582;2023-03-03T18:53:29;100520.60;;;3.50
69435;BMP180;56625;54.322;18.582;2023-03-03T18:56:08;100523.00;;;3.42
69435;BMP180;56625;54.322;18.582;2023-03-03T18:58:42;100525.40;;;3.40
69435;BMP180;56625;54.322;18.582;2023-03-03T19:09:18;100496.60;;;3.30
69435;BMP180;56625;54.322;18.582;2023-03-03T19:11:51;100487.60;;;3.30
69435;BMP180;56625;54.322;18.582;2023-03-03T19:16:59;100472.60;;;3.20
69435;BMP180;56625;54.322;18.582;2023-03-03T19:20:11;100455.80;;;3.10
69435;BMP180;56625;54.322;18.582;2023-03-03T19:22:50;100470.80;;;3.10
69435;BMP180;56625;54.322;18.582;2023-03-03T19:25:23;100484.40;;;3.10
69435;BMP180;56625;54.322;18.582;2023-03-03T19:28:36;100480.00;;;3.00